Main page
METAR-TAF:

METAR-TAF

Airports :

Amsterdam, Netherlands

Amsterdam Airport Schiphol

latitude: 52-18N, longitude: 004-46E, elevation: -4 m

Current weather observation

The report was made 27 minutes ago, at 04:55 UTC
Wind 9 kt from the East/Northeast
Temperature 6°C
Humidity 87%
Pressure 1026 hPa
Visibility 10 km or more
no clouds below 1500 m and no cumulonimbus

METAR: EHAM 260455Z 06009KT CAVOK 06/04 Q1026 NOSIG

Time: 07:22 (05:22 UTC)

Forecast

The report was made 6 hours and 8 minutes ago, at 23:14 UTC
Forecast valid from 26 at 00 UTC to 27 at 06 UTC
Wind 9 kt from the East/Northeast
Visibility 10 km or more
no clouds below 1500 m and no cumulonimbus
Probability 30%
from 27 at 00 UTC to 27 at 06 UTC
Wind 3 kt from variable directions
Visibility: 2500 m
patches of fog

TAF: EHAM 252314Z 2600/2706 06009KT CAVOK PROB30 2700/2706 VRB03KT 2500 BCFG

Weather observations and forecasts of more than 4000 airports (METAR and TAF reports).

The available stations are represented by yellow and red dots on the map.

Hover mouse over dot to see the name of the station.

Then click to see weather observations and forecasts.

To change the map : click on the green buttons with a black cross to zoom in, on the green button with a dash to zoom out, or on the green arrows for adjacent maps.


METAR-TAF: